Time;durP1;ratioP1;P1;durP2;ratioP2;P2;SDS_P1;SDS_P2;PMS_P1;PMS_P2;Temp;Humidity;BMP_temperature;BMP_pressure;BME280_temperature;BME280_humidity;BME280_pressure;Samples;Min_cycle;Max_cycle;Signal;HPM_P1;HPM_P2
2022/04/30 00:00:16;;;;;;;78.97;29.00;;;;;;;;;;5051673;28;22754;-56
2022/04/30 00:02:41;;;;;;;86.65;30.35;;;;;;;;;;5054583;28;20107;-56
2022/04/30 00:05:09;;;;;;;76.22;31.10;;;;;;;;;;5053722;28;20029;-56
2022/04/30 00:07:35;;;;;;;73.95;30.13;;;;;;;;;;5053842;28;20607;-56
2022/04/30 00:10:00;;;;;;;81.60;31.38;;;;;;;;;;5058498;28;20523;-56
2022/04/30 00:12:26;;;;;;;77.07;29.70;;;;;;;;;;5053167;28;20493;-57
2022/04/30 00:14:52;;;;;;;74.88;30.77;;;;;;;;;;5060855;28;20040;-56
2022/04/30 00:17:17;;;;;;;82.78;32.45;;;;;;;;;;5054776;28;20032;-56
2022/04/30 00:19:43;;;;;;;74.32;30.55;;;;;;;;;;5062983;28;20036;-56
2022/04/30 00:22:09;;;;;;;83.13;32.58;;;;;;;;;;5057110;28;20460;-57
2022/04/30 00:24:35;;;;;;;96.40;32.75;;;;;;;;;;5052789;28;20036;-57
2022/04/30 00:27:01;;;;;;;85.43;32.13;;;;;;;;;;5052693;28;20041;-57
2022/04/30 00:29:31;;;;;;;91.78;32.67;;;;;;;;;;5057339;28;20063;-57
2022/04/30 00:31:57;;;;;;;97.35;32.97;;;;;;;;;;5053358;28;20540;-57
2022/04/30 00:34:23;;;;;;;95.68;31.92;;;;;;;;;;5054888;28;20044;-57
2022/04/30 00:36:49;;;;;;;82.38;31.20;;;;;;;;;;5059517;28;20125;-57
2022/04/30 00:39:14;;;;;;;75.30;31.08;;;;;;;;;;5059722;28;20040;-57
2022/04/30 00:41:47;;;;;;;83.40;30.55;;;;;;;;;;5059937;28;20047;-57
2022/04/30 00:44:19;;;;;;;80.80;31.67;;;;;;;;;;5056270;28;20048;-57
2022/04/30 00:46:45;;;;;;;75.88;30.63;;;;;;;;;;5057894;28;20108;-57
2022/04/30 00:49:11;;;;;;;72.03;30.92;;;;;;;;;;5055503;28;20020;-57
2022/04/30 00:51:39;;;;;;;83.22;30.85;;;;;;;;;;5053151;28;20047;-57
2022/04/30 00:54:05;;;;;;;84.88;32.53;;;;;;;;;;5060838;28;20036;-57
2022/04/30 00:56:56;;;;;;;83.22;32.63;;;;;;;;;;5058287;28;20212;-57
2022/04/30 00:59:24;;;;;;;89.20;30.98;;;;;;;;;;5056233;28;20052;-56
2022/04/30 01:01:51;;;;;;;84.25;30.25;;;;;;;;;;5054444;28;20053;-57
2022/04/30 01:04:18;;;;;;;74.25;31.98;;;;;;;;;;5057115;28;20041;-57
2022/04/30 01:06:51;;;;;;;79.93;32.05;;;;;;;;;;5059763;28;20510;-57
2022/04/30 01:09:28;;;;;;;87.35;32.05;;;;;;;;;;5055112;28;20040;-57
2022/04/30 01:11:56;;;;;;;89.15;31.80;;;;;;;;;;5061193;28;20055;-57
2022/04/30 01:14:22;;;;;;;75.40;31.60;;;;;;;;;;5052600;28;20021;-55
2022/04/30 01:16:49;;;;;;;79.30;30.85;;;;;;;;;;5056279;28;20079;-57
2022/04/30 01:19:20;;;;;;;84.53;30.08;;;;;;;;;;5061804;28;20044;-57
2022/04/30 01:21:50;;;;;;;81.57;31.27;;;;;;;;;;5058858;28;20077;-57
2022/04/30 01:24:22;;;;;;;78.75;31.55;;;;;;;;;;5057012;28;20385;-57
2022/04/30 01:26:51;;;;;;;80.15;30.67;;;;;;;;;;5052782;28;20025;-57
2022/04/30 01:29:21;;;;;;;89.40;30.85;;;;;;;;;;5054907;28;20033;-56
2022/04/30 01:37:25;;;;;;;70.80;27.55;;;;;;;;;;5053039;28;20048;-55
2022/04/30 01:39:59;;;;;;;75.97;28.58;;;;;;;;;;5056270;28;20029;-55
2022/04/30 01:42:34;;;;;;;77.88;27.52;;;;;;;;;;5057518;28;20082;-55
2022/04/30 01:44:59;;;;;;;72.60;26.55;;;;;;;;;;5056673;28;20044;-55
2022/04/30 01:47:26;;;;;;;61.15;25.08;;;;;;;;;;5058647;28;20040;-56
2022/04/30 01:49:52;;;;;;;72.57;27.60;;;;;;;;;;5057573;28;20028;-55
2022/04/30 01:52:18;;;;;;;77.97;26.98;;;;;;;;;;5059069;28;20044;-56
2022/04/30 01:54:44;;;;;;;62.20;26.33;;;;;;;;;;5058644;28;20017;-55
2022/04/30 01:57:10;;;;;;;68.80;27.95;;;;;;;;;;5056010;28;20637;-56
2022/04/30 01:59:36;;;;;;;66.13;26.30;;;;;;;;;;5060182;28;20029;-55
2022/04/30 02:02:04;;;;;;;73.57;27.30;;;;;;;;;;5050250;28;20499;-56
2022/04/30 02:04:35;;;;;;;75.82;27.00;;;;;;;;;;5054251;28;20383;-55
2022/04/30 02:07:01;;;;;;;70.90;27.42;;;;;;;;;;5054617;28;20067;-55
2022/04/30 02:09:29;;;;;;;84.35;27.70;;;;;;;;;;5052375;28;20025;-56
2022/04/30 02:11:59;;;;;;;84.13;28.45;;;;;;;;;;5058937;28;20044;-56
2022/04/30 02:14:30;;;;;;;66.80;26.70;;;;;;;;;;5057570;28;20142;-58
2022/04/30 02:16:57;;;;;;;74.65;28.33;;;;;;;;;;5051205;28;20041;-56
2022/04/30 02:19:26;;;;;;;63.67;25.70;;;;;;;;;;5056079;28;20064;-55
2022/04/30 02:21:52;;;;;;;71.35;26.52;;;;;;;;;;5051851;28;20407;-56
2022/04/30 02:24:18;;;;;;;63.78;25.58;;;;;;;;;;5058092;28;20032;-56
2022/04/30 02:26:43;;;;;;;69.00;25.35;;;;;;;;;;5057598;28;20037;-55
2022/04/30 02:29:10;;;;;;;66.22;25.80;;;;;;;;;;5054715;28;20040;-55
2022/04/30 02:31:35;;;;;;;84.00;26.88;;;;;;;;;;5053575;28;20509;-55
2022/04/30 02:34:01;;;;;;;66.03;26.33;;;;;;;;;;5056899;28;20119;-55
2022/04/30 02:36:27;;;;;;;76.90;26.10;;;;;;;;;;5050659;28;20048;-56
2022/04/30 02:38:57;;;;;;;65.78;24.67;;;;;;;;;;5058145;28;20403;-56
2022/04/30 02:41:23;;;;;;;70.70;27.40;;;;;;;;;;5056219;28;20032;-56
2022/04/30 02:43:50;;;;;;;68.80;26.30;;;;;;;;;;5061220;28;20499;-55
2022/04/30 02:46:17;;;;;;;64.10;25.83;;;;;;;;;;5051311;28;20472;-55
2022/04/30 02:48:43;;;;;;;72.85;26.38;;;;;;;;;;5052577;28;20415;-55
2022/04/30 02:51:10;;;;;;;62.22;24.10;;;;;;;;;;5056054;28;20056;-54
2022/04/30 02:53:37;;;;;;;68.82;25.80;;;;;;;;;;5054817;28;20294;-55
2022/04/30 02:56:04;;;;;;;69.32;26.63;;;;;;;;;;5049216;28;20067;-55
2022/04/30 03:01:13;;;;;;;70.78;27.33;;;;;;;;;;5054840;28;20044;-56
2022/04/30 03:03:38;;;;;;;73.93;27.52;;;;;;;;;;5053543;28;20033;-56
2022/04/30 03:06:05;;;;;;;70.22;28.85;;;;;;;;;;5046735;28;20434;-56
2022/04/30 03:08:32;;;;;;;68.20;28.25;;;;;;;;;;5054102;28;20443;-56
2022/04/30 03:10:58;;;;;;;75.18;29.67;;;;;;;;;;5060414;28;20412;-55
2022/04/30 03:13:24;;;;;;;84.07;29.67;;;;;;;;;;5057756;28;20029;-57
2022/04/30 03:15:52;;;;;;;69.68;31.75;;;;;;;;;;5054869;28;20033;-56
2022/04/30 03:23:51;;;;;;;76.65;31.13;;;;;;;;;;5051729;28;20093;-56
2022/04/30 03:26:17;;;;;;;80.50;31.83;;;;;;;;;;5058290;28;20570;-56
2022/04/30 03:28:43;;;;;;;79.72;31.02;;;;;;;;;;5052353;28;20115;-56
2022/04/30 03:31:10;;;;;;;78.20;32.22;;;;;;;;;;5050852;28;20382;-56
2022/04/30 03:33:36;;;;;;;74.53;31.98;;;;;;;;;;5049909;28;20549;-55
2022/04/30 03:36:02;;;;;;;77.40;30.45;;;;;;;;;;5057050;28;20047;-55
2022/04/30 03:38:28;;;;;;;66.25;28.55;;;;;;;;;;5049523;28;20403;-56
2022/04/30 03:40:54;;;;;;;73.93;31.00;;;;;;;;;;5050411;28;20024;-55
2022/04/30 03:43:19;;;;;;;81.40;30.35;;;;;;;;;;5058706;28;20052;-55
2022/04/30 03:45:45;;;;;;;74.20;30.35;;;;;;;;;;5056038;28;20441;-56
2022/04/30 03:48:12;;;;;;;92.10;31.95;;;;;;;;;;5053722;28;20083;-55
2022/04/30 03:50:38;;;;;;;90.55;32.85;;;;;;;;;;5056643;28;20117;-55
2022/04/30 03:53:04;;;;;;;70.55;31.23;;;;;;;;;;5048663;28;20494;-55
2022/04/30 03:55:30;;;;;;;77.13;30.63;;;;;;;;;;5051206;28;20032;-55
2022/04/30 03:57:55;;;;;;;74.15;30.45;;;;;;;;;;5057010;28;20036;-55
2022/04/30 04:00:21;;;;;;;83.72;32.35;;;;;;;;;;5051283;28;20166;-55
2022/04/30 04:02:47;;;;;;;82.28;30.70;;;;;;;;;;5054646;28;20028;-55
2022/04/30 04:05:12;;;;;;;86.60;30.33;;;;;;;;;;5053337;28;20025;-56
2022/04/30 04:07:39;;;;;;;81.82;30.75;;;;;;;;;;5052775;28;20035;-55
2022/04/30 04:10:06;;;;;;;69.40;31.55;;;;;;;;;;5058754;28;20529;-56
2022/04/30 04:12:31;;;;;;;73.38;28.30;;;;;;;;;;5055059;28;20107;-55
2022/04/30 04:17:41;;;;;;;80.15;31.35;;;;;;;;;;5053449;28;20157;-56
2022/04/30 04:20:17;;;;;;;80.68;31.73;;;;;;;;;;5054361;28;20056;-55
2022/04/30 04:22:44;;;;;;;72.95;31.20;;;;;;;;;;5055323;28;20527;-57
2022/04/30 04:27:55;;;;;;;85.85;30.77;;;;;;;;;;5055764;28;20047;-57
2022/04/30 04:30:22;;;;;;;71.72;30.83;;;;;;;;;;5054613;28;20420;-56
2022/04/30 04:32:48;;;;;;;84.90;31.70;;;;;;;;;;5052865;28;20020;-55
2022/04/30 04:35:14;;;;;;;79.75;30.60;;;;;;;;;;5052960;28;20117;-55
2022/04/30 04:37:41;;;;;;;76.65;30.73;;;;;;;;;;5055090;28;20051;-56
2022/04/30 04:40:09;;;;;;;70.55;31.27;;;;;;;;;;5049994;28;20557;-57
2022/04/30 04:42:36;;;;;;;69.78;31.35;;;;;;;;;;5050630;28;20040;-56
2022/04/30 04:45:02;;;;;;;80.03;31.55;;;;;;;;;;5053261;28;20399;-57
2022/04/30 04:47:28;;;;;;;83.10;31.15;;;;;;;;;;5048831;28;20455;-56
2022/04/30 04:49:54;;;;;;;76.95;30.65;;;;;;;;;;5051298;28;20041;-56
2022/04/30 04:52:21;;;;;;;70.75;30.38;;;;;;;;;;5055795;28;20095;-56
2022/04/30 04:54:46;;;;;;;75.78;30.60;;;;;;;;;;5053017;28;20033;-56
2022/04/30 04:57:12;;;;;;;76.72;30.10;;;;;;;;;;5051499;28;20395;-56
2022/04/30 04:59:37;;;;;;;73.63;29.95;;;;;;;;;;5058758;28;20559;-56
2022/04/30 05:02:03;;;;;;;87.28;30.65;;;;;;;;;;5051545;28;20033;-55
2022/04/30 05:04:29;;;;;;;79.93;30.75;;;;;;;;;;5057771;28;20053;-56
2022/04/30 05:06:55;;;;;;;73.13;32.63;;;;;;;;;;5055803;28;20028;-56
2022/04/30 05:09:20;;;;;;;83.68;31.58;;;;;;;;;;5057772;28;20090;-55
2022/04/30 05:11:46;;;;;;;77.10;30.80;;;;;;;;;;5055483;28;20116;-55
2022/04/30 05:14:11;;;;;;;79.55;31.40;;;;;;;;;;5056403;28;20450;-55
2022/04/30 05:16:37;;;;;;;81.05;32.53;;;;;;;;;;5058610;28;20029;-56
2022/04/30 05:19:05;;;;;;;84.25;33.05;;;;;;;;;;5054146;28;20033;-55
2022/04/30 05:21:31;;;;;;;69.90;30.05;;;;;;;;;;5056771;28;20064;-57
2022/04/30 05:23:56;;;;;;;71.53;29.58;;;;;;;;;;5056653;28;20530;-57
2022/04/30 05:26:21;;;;;;;70.95;29.60;;;;;;;;;;5055867;28;20028;-57
2022/04/30 05:28:47;;;;;;;70.50;30.25;;;;;;;;;;5058399;28;20111;-57
2022/04/30 05:31:12;;;;;;;67.88;28.88;;;;;;;;;;5057119;28;20025;-57
2022/04/30 05:33:38;;;;;;;65.85;29.13;;;;;;;;;;5055873;28;20029;-57
2022/04/30 05:36:04;;;;;;;72.43;28.27;;;;;;;;;;5050702;28;20530;-56
2022/04/30 05:38:29;;;;;;;80.72;29.58;;;;;;;;;;5055686;28;20038;-56
2022/04/30 05:40:55;;;;;;;84.50;29.50;;;;;;;;;;5057395;28;20111;-57
2022/04/30 05:43:20;;;;;;;75.22;29.58;;;;;;;;;;5053525;28;20021;-56
2022/04/30 05:45:46;;;;;;;77.07;29.52;;;;;;;;;;5058017;28;20021;-57
2022/04/30 05:48:11;;;;;;;77.63;29.98;;;;;;;;;;5056466;28;20032;-56
2022/04/30 05:50:37;;;;;;;75.10;29.02;;;;;;;;;;5054347;28;20029;-56
2022/04/30 05:53:04;;;;;;;80.55;31.42;;;;;;;;;;5060594;28;20043;-56
2022/04/30 05:55:30;;;;;;;77.75;30.63;;;;;;;;;;5055479;28;20036;-57
2022/04/30 05:57:56;;;;;;;77.80;31.30;;;;;;;;;;5057126;28;20024;-56
2022/04/30 06:00:22;;;;;;;75.57;31.88;;;;;;;;;;5055916;28;20036;-55
2022/04/30 06:02:48;;;;;;;84.15;33.58;;;;;;;;;;5057637;28;20545;-56
2022/04/30 06:05:14;;;;;;;87.88;33.47;;;;;;;;;;5057928;28;20115;-57
2022/04/30 06:07:39;;;;;;;85.50;32.60;;;;;;;;;;5059009;28;20182;-56
2022/04/30 06:10:05;;;;;;;84.50;32.20;;;;;;;;;;5052541;28;20040;-56
2022/04/30 06:12:31;;;;;;;83.25;32.05;;;;;;;;;;5055529;28;20037;-57
2022/04/30 06:14:57;;;;;;;88.15;33.28;;;;;;;;;;5055150;28;20047;-56
2022/04/30 06:17:22;;;;;;;92.95;35.47;;;;;;;;;;5058230;28;20280;-55
2022/04/30 06:19:48;;;;;;;81.53;31.95;;;;;;;;;;5053609;28;20376;-56
2022/04/30 06:22:13;;;;;;;80.57;31.52;;;;;;;;;;5059480;28;20086;-56
2022/04/30 06:24:39;;;;;;;86.55;31.58;;;;;;;;;;5058721;28;20028;-56
2022/04/30 06:27:05;;;;;;;71.80;28.45;;;;;;;;;;5051411;28;20040;-56
2022/04/30 06:29:31;;;;;;;70.68;28.80;;;;;;;;;;5049998;28;20145;-56
2022/04/30 06:31:56;;;;;;;65.53;24.35;;;;;;;;;;5055260;28;20024;-56
2022/04/30 06:34:22;;;;;;;51.42;24.20;;;;;;;;;;5058042;28;20033;-57
2022/04/30 06:36:48;;;;;;;51.85;21.05;;;;;;;;;;5061341;28;20092;-56
2022/04/30 06:39:14;;;;;;;51.33;21.10;;;;;;;;;;5060465;28;20109;-57
2022/04/30 06:41:39;;;;;;;48.08;20.17;;;;;;;;;;5053868;28;20035;-57
2022/04/30 06:44:05;;;;;;;56.88;19.98;;;;;;;;;;5057741;28;20065;-57
2022/04/30 06:46:31;;;;;;;50.58;20.02;;;;;;;;;;5052747;22;20514;-82
2022/04/30 06:49:05;;;;;;;59.05;18.13;;;;;;;;;;5039787;28;20474;-87
2022/04/30 06:51:31;;;;;;;48.50;18.85;;;;;;;;;;5034862;28;20032;-82
2022/04/30 06:59:41;;;;;;;51.42;18.05;;;;;;;;;;4989336;28;20037;-79
2022/04/30 07:02:19;;;;;;;50.67;17.85;;;;;;;;;;5030517;28;20045;-79
2022/04/30 07:04:49;;;;;;;40.40;18.70;;;;;;;;;;5026089;28;20026;-79
2022/04/30 07:07:15;;;;;;;52.22;18.38;;;;;;;;;;5033433;28;20492;-80
2022/04/30 07:09:41;;;;;;;45.08;18.05;;;;;;;;;;5038218;28;20032;-80
2022/04/30 07:12:09;;;;;;;48.50;18.05;;;;;;;;;;5039239;28;20047;-80
2022/04/30 07:14:36;;;;;;;52.92;18.55;;;;;;;;;;5035999;28;20116;-80
2022/04/30 07:17:08;;;;;;;51.40;19.52;;;;;;;;;;5038348;28;20043;-87
2022/04/30 07:19:34;;;;;;;43.53;17.50;;;;;;;;;;5039548;28;20033;-81
2022/04/30 07:22:01;;;;;;;39.10;16.77;;;;;;;;;;5031965;28;20029;-80
2022/04/30 07:24:27;;;;;;;45.22;17.80;;;;;;;;;;5030864;28;20017;-81
2022/04/30 07:26:53;;;;;;;40.72;16.88;;;;;;;;;;5036268;28;20032;-80
2022/04/30 07:29:19;;;;;;;52.15;17.67;;;;;;;;;;5054996;28;20042;-80
2022/04/30 07:31:44;;;;;;;51.38;19.42;;;;;;;;;;5038723;28;20153;-79
2022/04/30 07:34:10;;;;;;;39.60;19.05;;;;;;;;;;5042301;28;20040;-75
2022/04/30 07:36:37;;;;;;;48.78;18.70;;;;;;;;;;5036743;28;20057;-75
2022/04/30 07:39:03;;;;;;;55.42;18.40;;;;;;;;;;5036153;28;20037;-75
2022/04/30 07:41:29;;;;;;;41.85;17.80;;;;;;;;;;5024950;28;20028;-75
2022/04/30 07:43:54;;;;;;;48.70;18.65;;;;;;;;;;5020210;28;20487;-75
2022/04/30 07:46:22;;;;;;;45.92;18.98;;;;;;;;;;5036972;28;20590;-75
2022/04/30 07:48:48;;;;;;;46.72;19.65;;;;;;;;;;5019838;28;20075;-75
2022/04/30 07:51:16;;;;;;;47.15;19.20;;;;;;;;;;5041006;28;20075;-75
2022/04/30 07:53:42;;;;;;;46.58;19.08;;;;;;;;;;5019869;28;20029;-75
2022/04/30 07:56:08;;;;;;;58.38;19.88;;;;;;;;;;5038028;28;20044;-75
2022/04/30 07:58:33;;;;;;;43.30;20.00;;;;;;;;;;5038468;28;20616;-76
2022/04/30 08:00:59;;;;;;;46.63;19.17;;;;;;;;;;5027113;28;20037;-75
2022/04/30 08:03:24;;;;;;;50.08;19.35;;;;;;;;;;5035596;28;20033;-79
2022/04/30 08:05:50;;;;;;;49.38;20.70;;;;;;;;;;5039476;28;20091;-79
2022/04/30 08:08:15;;;;;;;46.20;20.90;;;;;;;;;;5009031;28;20030;-79
2022/04/30 08:10:41;;;;;;;55.92;20.48;;;;;;;;;;5040344;28;20125;-79
2022/04/30 08:13:06;;;;;;;43.33;19.75;;;;;;;;;;5036350;28;20426;-79
2022/04/30 08:15:32;;;;;;;50.08;21.13;;;;;;;;;;5041742;28;20048;-79
2022/04/30 08:17:58;;;;;;;49.08;19.27;;;;;;;;;;5026022;28;20033;-79
2022/04/30 08:20:23;;;;;;;46.25;21.10;;;;;;;;;;5023039;28;20044;-79
2022/04/30 08:22:49;;;;;;;56.70;20.33;;;;;;;;;;5043445;28;20074;-79
2022/04/30 08:25:15;;;;;;;48.33;20.58;;;;;;;;;;5023396;28;20040;-79
2022/04/30 08:27:41;;;;;;;45.97;19.85;;;;;;;;;;5036733;28;20083;-79
2022/04/30 08:30:08;;;;;;;43.70;20.00;;;;;;;;;;5042511;28;20111;-79
2022/04/30 08:32:33;;;;;;;45.53;21.42;;;;;;;;;;5024971;28;20037;-76
2022/04/30 08:35:01;;;;;;;48.60;19.67;;;;;;;;;;5042293;28;20044;-75
2022/04/30 08:37:27;;;;;;;50.95;20.60;;;;;;;;;;5029365;28;20515;-75
2022/04/30 08:39:53;;;;;;;52.38;20.27;;;;;;;;;;5026974;28;20624;-75
2022/04/30 08:42:25;;;;;;;48.28;21.23;;;;;;;;;;5009647;28;20037;-76
2022/04/30 08:44:51;;;;;;;46.47;20.38;;;;;;;;;;5037009;28;20387;-76
2022/04/30 08:47:16;;;;;;;44.80;18.83;;;;;;;;;;5045082;28;20511;-75
2022/04/30 08:49:42;;;;;;;47.38;20.08;;;;;;;;;;5043037;28;20028;-75
2022/04/30 08:52:09;;;;;;;52.28;20.45;;;;;;;;;;5026612;28;20045;-75
2022/04/30 08:54:35;;;;;;;51.88;21.92;;;;;;;;;;5038149;28;20039;-75
2022/04/30 08:57:00;;;;;;;48.75;21.60;;;;;;;;;;5023741;28;20454;-75
2022/04/30 08:59:27;;;;;;;48.47;19.98;;;;;;;;;;5005808;28;20084;-74
2022/04/30 09:01:55;;;;;;;53.65;21.90;;;;;;;;;;5023224;28;20021;-75
2022/04/30 09:04:21;;;;;;;52.95;22.05;;;;;;;;;;5044155;28;20103;-76
2022/04/30 09:06:54;;;;;;;58.42;22.35;;;;;;;;;;5023378;28;20017;-76
2022/04/30 09:09:28;;;;;;;51.55;21.92;;;;;;;;;;5038455;28;20474;-75
2022/04/30 09:11:57;;;;;;;46.05;20.45;;;;;;;;;;5039288;28;20026;-75
2022/04/30 09:14:29;;;;;;;52.20;20.67;;;;;;;;;;5027286;28;20663;-75
2022/04/30 09:17:06;;;;;;;44.10;19.95;;;;;;;;;;5045114;28;20037;-75
2022/04/30 09:19:36;;;;;;;46.95;20.63;;;;;;;;;;5037492;28;20638;-75
2022/04/30 09:22:01;;;;;;;45.58;19.08;;;;;;;;;;5028963;28;20041;-75
2022/04/30 09:24:27;;;;;;;40.20;18.00;;;;;;;;;;5044869;28;20519;-75
2022/04/30 09:26:52;;;;;;;43.35;19.75;;;;;;;;;;5012630;28;20037;-76
2022/04/30 09:29:24;;;;;;;40.10;20.27;;;;;;;;;;5036857;28;20471;-75
2022/04/30 09:31:53;;;;;;;45.35;20.70;;;;;;;;;;5039325;28;20029;-75
2022/04/30 09:40:03;;;;;;;43.53;19.25;;;;;;;;;;5014323;28;20491;-79
2022/04/30 09:42:38;;;;;;;46.83;19.42;;;;;;;;;;5040658;28;20040;-80
2022/04/30 09:45:04;;;;;;;43.88;19.77;;;;;;;;;;5039278;28;20036;-80
2022/04/30 09:47:31;;;;;;;44.75;19.33;;;;;;;;;;5031860;28;20040;-80
2022/04/30 09:55:29;;;;;;;38.25;17.75;;;;;;;;;;5037955;28;20132;-79
2022/04/30 09:57:56;;;;;;;33.15;18.00;;;;;;;;;;5029481;28;20048;-79
2022/04/30 10:00:22;;;;;;;40.53;18.20;;;;;;;;;;5042921;28;20032;-80
2022/04/30 10:02:58;;;;;;;37.55;17.73;;;;;;;;;;5036573;28;20029;-80
2022/04/30 10:05:24;;;;;;;38.97;17.23;;;;;;;;;;5037361;28;20511;-80
2022/04/30 10:07:50;;;;;;;35.10;18.15;;;;;;;;;;5045099;28;20041;-80
2022/04/30 10:10:22;;;;;;;36.85;17.70;;;;;;;;;;5045621;28;20025;-81
2022/04/30 10:13:26;;;;;;;36.47;16.50;;;;;;;;;;5050767;28;20044;-81
2022/04/30 10:15:53;;;;;;;38.47;17.63;;;;;;;;;;5038758;28;20045;-80
2022/04/30 10:18:23;;;;;;;36.33;17.88;;;;;;;;;;5043187;28;20082;-79
2022/04/30 10:20:59;;;;;;;38.25;18.85;;;;;;;;;;5024169;28;20033;-80
2022/04/30 10:23:26;;;;;;;36.03;16.77;;;;;;;;;;5046408;28;20029;-80
2022/04/30 10:25:53;;;;;;;34.97;16.27;;;;;;;;;;5027657;28;20033;-80
2022/04/30 10:28:23;;;;;;;38.10;17.27;;;;;;;;;;5046986;28;20055;-80
2022/04/30 10:31:03;;;;;;;32.45;16.63;;;;;;;;;;5023364;28;20036;-80
2022/04/30 10:33:30;;;;;;;37.15;16.60;;;;;;;;;;5043596;28;20064;-80
2022/04/30 10:36:10;;;;;;;42.17;17.02;;;;;;;;;;5045101;28;20856;-80
2022/04/30 10:38:36;;;;;;;38.90;17.58;;;;;;;;;;5027422;28;20037;-80
2022/04/30 10:41:04;;;;;;;31.20;15.73;;;;;;;;;;5041480;28;20021;-80
2022/04/30 10:43:35;;;;;;;34.90;15.32;;;;;;;;;;5047012;28;20032;-75
2022/04/30 10:46:21;;;;;;;36.20;16.10;;;;;;;;;;5043978;28;20045;-75
2022/04/30 10:48:47;;;;;;;33.42;15.50;;;;;;;;;;5044478;28;20399;-75
2022/04/30 10:51:15;;;;;;;36.03;15.82;;;;;;;;;;5044945;28;20033;-75
2022/04/30 10:53:45;;;;;;;33.88;15.48;;;;;;;;;;5027604;28;20037;-75
2022/04/30 10:56:13;;;;;;;30.13;15.50;;;;;;;;;;5040628;28;20515;-76
2022/04/30 10:58:41;;;;;;;30.95;14.63;;;;;;;;;;5041407;28;20033;-75
2022/04/30 11:01:15;;;;;;;34.67;15.88;;;;;;;;;;5042405;28;20116;-75
2022/04/30 11:03:42;;;;;;;31.85;15.00;;;;;;;;;;5050021;28;20021;-75
2022/04/30 11:06:17;;;;;;;29.33;16.20;;;;;;;;;;5034988;28;20044;-76
2022/04/30 11:08:42;;;;;;;34.08;15.00;;;;;;;;;;5040540;28;20037;-76
2022/04/30 11:11:08;;;;;;;30.42;12.90;;;;;;;;;;5021424;28;20095;-72
2022/04/30 11:13:33;;;;;;;27.23;14.30;;;;;;;;;;5039568;28;20580;-77
2022/04/30 11:15:59;;;;;;;23.23;11.32;;;;;;;;;;5023878;28;20045;-76
2022/04/30 11:18:26;;;;;;;27.38;13.00;;;;;;;;;;5029868;28;20037;-76
2022/04/30 11:21:01;;;;;;;39.30;14.70;;;;;;;;;;5027424;28;20065;-78
2022/04/30 11:23:28;;;;;;;36.17;15.35;;;;;;;;;;5045757;28;20052;-75
2022/04/30 11:25:54;;;;;;;31.08;12.65;;;;;;;;;;5042856;28;20595;-75
2022/04/30 11:28:28;;;;;;;25.98;11.85;;;;;;;;;;5024592;28;20120;-75
2022/04/30 11:30:59;;;;;;;25.38;10.77;;;;;;;;;;5039964;28;20075;-75
2022/04/30 11:33:36;;;;;;;26.15;12.40;;;;;;;;;;5042018;28;20112;-75
2022/04/30 11:36:02;;;;;;;24.27;11.57;;;;;;;;;;5041912;28;20025;-75
2022/04/30 11:38:28;;;;;;;61.33;23.98;;;;;;;;;;5044981;28;20066;-75
2022/04/30 11:41:04;;;;;;;53.20;22.85;;;;;;;;;;5042735;28;20039;-75
2022/04/30 11:43:30;;;;;;;53.40;26.65;;;;;;;;;;5041582;28;20586;-75
2022/04/30 11:46:02;;;;;;;53.80;23.02;;;;;;;;;;5045542;28;20063;-75
2022/04/30 11:48:37;;;;;;;26.23;11.98;;;;;;;;;;5041676;28;20131;-75
2022/04/30 11:51:03;;;;;;;38.00;14.25;;;;;;;;;;5033657;28;20064;-75
2022/04/30 11:53:29;;;;;;;28.77;14.40;;;;;;;;;;5040392;28;20052;-75
2022/04/30 11:55:54;;;;;;;28.52;13.77;;;;;;;;;;5030386;28;20078;-75
2022/04/30 11:58:20;;;;;;;36.33;13.95;;;;;;;;;;5038956;28;20220;-75
2022/04/30 12:00:45;;;;;;;36.10;17.90;;;;;;;;;;5020595;28;20526;-77
2022/04/30 12:03:11;;;;;;;50.10;24.90;;;;;;;;;;5019338;28;20057;-77
2022/04/30 12:05:42;;;;;;;37.15;18.02;;;;;;;;;;5017950;28;20025;-77
2022/04/30 12:08:07;;;;;;;36.88;18.90;;;;;;;;;;5029456;28;20061;-74
2022/04/30 12:10:33;;;;;;;32.35;14.18;;;;;;;;;;5027354;28;20056;-75
2022/04/30 12:12:58;;;;;;;52.85;23.75;;;;;;;;;;5039534;28;20045;-74
2022/04/30 12:15:26;;;;;;;78.65;28.40;;;;;;;;;;5029557;28;20025;-74
2022/04/30 12:26:55;;;;;;;77.25;36.60;;;;;;;;;;5041137;28;20086;-76
2022/04/30 12:29:23;;;;;;;35.17;17.05;;;;;;;;;;5059541;28;20021;-77
2022/04/30 12:31:52;;;;;;;66.07;33.08;;;;;;;;;;5047431;28;20029;-77
2022/04/30 12:34:25;;;;;;;50.35;27.08;;;;;;;;;;5046162;28;20546;-76
2022/04/30 12:36:56;;;;;;;57.60;27.08;;;;;;;;;;5044087;28;20726;-76
2022/04/30 12:39:23;;;;;;;34.05;17.63;;;;;;;;;;5045507;28;20033;-76
2022/04/30 12:41:53;;;;;;;27.08;14.20;;;;;;;;;;5043735;28;20087;-76
2022/04/30 12:44:19;;;;;;;41.92;20.65;;;;;;;;;;5037073;28;20036;-80
2022/04/30 12:46:46;;;;;;;28.83;15.65;;;;;;;;;;5043227;28;20053;-80
2022/04/30 12:49:15;;;;;;;21.38;12.57;;;;;;;;;;5040531;28;20030;-81
2022/04/30 12:51:42;;;;;;;27.88;13.88;;;;;;;;;;5045161;28;20116;-80
2022/04/30 12:54:12;;;;;;;29.50;13.90;;;;;;;;;;5044734;28;20495;-80
2022/04/30 12:56:40;;;;;;;22.13;11.98;;;;;;;;;;5038628;28;20040;-81
2022/04/30 12:59:06;;;;;;;32.78;14.00;;;;;;;;;;5045401;28;20040;-81
2022/04/30 13:01:35;;;;;;;27.65;15.13;;;;;;;;;;5047895;28;20060;-81
2022/04/30 13:04:01;;;;;;;31.88;16.63;;;;;;;;;;5032924;28;20029;-80
2022/04/30 13:06:29;;;;;;;25.67;14.43;;;;;;;;;;5045421;28;20033;-80
2022/04/30 13:14:23;;;;;;;30.17;15.50;;;;;;;;;;5044608;28;20108;-80
2022/04/30 13:16:50;;;;;;;30.45;16.52;;;;;;;;;;5046269;28;20115;-80
2022/04/30 13:19:15;;;;;;;27.55;14.77;;;;;;;;;;5028126;28;20029;-80
2022/04/30 13:21:41;;;;;;;38.85;20.65;;;;;;;;;;5044740;28;20048;-81
2022/04/30 13:24:08;;;;;;;45.05;25.02;;;;;;;;;;5015171;28;20105;-81
2022/04/30 13:26:33;;;;;;;36.25;20.27;;;;;;;;;;5044387;28;20026;-81
2022/04/30 13:28:59;;;;;;;33.58;19.35;;;;;;;;;;5043362;28;20091;-81
2022/04/30 13:31:25;;;;;;;35.05;19.10;;;;;;;;;;5025953;28;20641;-81
2022/04/30 13:33:50;;;;;;;33.05;18.42;;;;;;;;;;5037874;28;20509;-81
2022/04/30 13:36:16;;;;;;;29.70;17.20;;;;;;;;;;5012346;28;20053;-83
2022/04/30 13:38:45;;;;;;;27.23;16.38;;;;;;;;;;5040651;28;20036;-83
2022/04/30 13:41:11;;;;;;;24.38;13.60;;;;;;;;;;5031299;28;20135;-82
2022/04/30 13:43:36;;;;;;;33.05;17.67;;;;;;;;;;5046676;28;20161;-81
2022/04/30 13:46:02;;;;;;;28.55;16.67;;;;;;;;;;5045986;28;20099;-82
2022/04/30 13:48:28;;;;;;;33.83;15.80;;;;;;;;;;5045946;28;20078;-82
2022/04/30 13:50:53;;;;;;;29.42;18.13;;;;;;;;;;5043833;28;20086;-82
2022/04/30 13:53:19;;;;;;;28.08;16.77;;;;;;;;;;5047077;28;20032;-81
2022/04/30 13:55:48;;;;;;;30.77;18.30;;;;;;;;;;5030612;28;20035;-81
2022/04/30 13:58:13;;;;;;;27.83;15.02;;;;;;;;;;5048559;28;20083;-81
2022/04/30 14:00:39;;;;;;;30.67;18.50;;;;;;;;;;5040121;28;20264;-81
2022/04/30 14:03:05;;;;;;;33.17;18.17;;;;;;;;;;5029958;28;20033;-81
2022/04/30 14:05:32;;;;;;;24.30;14.27;;;;;;;;;;5035190;28;20037;-80
2022/04/30 14:07:58;;;;;;;25.40;16.35;;;;;;;;;;5045505;28;20599;-81
2022/04/30 14:10:27;;;;;;;24.30;14.40;;;;;;;;;;5040983;28;20033;-81
2022/04/30 14:12:53;;;;;;;27.70;15.95;;;;;;;;;;5027838;28;20504;-81
2022/04/30 14:15:19;;;;;;;29.33;15.00;;;;;;;;;;5044547;28;20076;-81
2022/04/30 14:20:29;;;;;;;28.70;16.67;;;;;;;;;;5041554;28;20048;-82
2022/04/30 14:22:54;;;;;;;26.83;15.70;;;;;;;;;;5058223;28;20033;-81
2022/04/30 14:25:22;;;;;;;23.38;13.65;;;;;;;;;;5030689;28;20036;-81
2022/04/30 14:27:48;;;;;;;23.88;13.68;;;;;;;;;;5042685;28;20029;-81
2022/04/30 14:30:14;;;;;;;25.23;14.85;;;;;;;;;;5043717;28;20085;-81
2022/04/30 14:32:41;;;;;;;25.55;14.23;;;;;;;;;;5046099;28;20024;-81
2022/04/30 14:35:08;;;;;;;22.52;14.52;;;;;;;;;;5041568;28;20416;-82
2022/04/30 14:37:35;;;;;;;26.30;15.32;;;;;;;;;;5047014;28;20024;-82
2022/04/30 14:40:04;;;;;;;27.05;15.23;;;;;;;;;;5026554;28;20037;-81
2022/04/30 14:42:30;;;;;;;24.38;14.50;;;;;;;;;;5029804;28;20028;-81
2022/04/30 14:44:56;;;;;;;30.35;17.38;;;;;;;;;;5028687;28;20047;-82
2022/04/30 14:47:22;;;;;;;30.00;17.90;;;;;;;;;;5029580;28;20052;-82
2022/04/30 14:49:49;;;;;;;26.17;16.38;;;;;;;;;;5046509;28;20039;-82
2022/04/30 14:52:14;;;;;;;33.53;17.48;;;;;;;;;;5046625;28;20107;-81
2022/04/30 14:54:40;;;;;;;40.55;21.20;;;;;;;;;;5010356;28;20618;-83
2022/04/30 14:57:05;;;;;;;49.40;26.73;;;;;;;;;;5026617;28;20364;-81
2022/04/30 14:59:31;;;;;;;40.78;21.35;;;;;;;;;;5028964;28;20021;-82
2022/04/30 15:01:57;;;;;;;30.80;16.95;;;;;;;;;;5022649;28;20032;-82
2022/04/30 15:04:24;;;;;;;38.28;22.77;;;;;;;;;;5041459;28;20053;-82
2022/04/30 15:06:50;;;;;;;49.97;30.85;;;;;;;;;;5042745;28;20024;-81
2022/04/30 15:09:15;;;;;;;56.80;33.10;;;;;;;;;;5011139;28;20040;-81